15  °C
Temperature
13  °C
  Dewpoint
   Humidity
Temp | Dewpoint | Humidity
11  km/h
Wind Speed
7  mph
Wind Speed
6  kts
Wind Speed
330°
North North
West

Wind Speed
Partly Cloudy
Conditions
Pressure 1023.92 (hPa) - 30.24 (in)
Visibility 6.2 (mi) - 10.0 (km)

Current Conditions
LEAS
Location 6km (3.2mi)
Metar :LEAS 261200Z 33006KT 290V010 9999 FEW007 BKN015 15/13 Q1024 TEMPO BKN010
Sun 26th May 13:00 pm

Airport
  Metar Aviation API Data Provided by https://www.checkwx.com/ CSS/SVG/PHP scripts by weather34.com © 2015-2019